To NAV CANADA Home Page Login to a new session Search on AWWS site Disclaimer Vers la page française équivalente Tips FAQ What's new on the site To the Forecasts and Observations / NOTAM section To "File a Flight Plan" website Publications and other links Update of the User's profile FIC Telephone Numbers My Weather Data Folder Route Weather Data Regional Weather Data Local Weather Data To the Forecasts and Observations / NOTAM section
Request Generated 04/12/2021 at 02:59:44 UTC . Weather information available at that time is displayed.

METAR/TAF

PETERBOROUGH/ON    (show WxCam)

SPECI CYPQ 120234Z AUTO 07004KT 9SM -RA FEW032 OVC044 13/12 A2960 RMK SLP027 DENSITY ALT 900FT=
SPECI CYPQ 120208Z AUTO 06005KT 9SM FEW034 OVC050 13/12 A2960 RMK SLP026 DENSITY ALT 900FT=
METAR CYPQ 120200Z AUTO 06005KT 9SM -RA OVC050 13/12 A2960 RMK SLP027 DENSITY ALT 900FT=
SPECI CYPQ 120154Z AUTO 06006KT 9SM -RA FEW036 OVC050 13/12 A2960 RMK SLP027 DENSITY ALT 900FT=
SPECI CYPQ 120142Z AUTO 05004KT 9SM SCT038 OVC055 13/12 A2960 RMK SLP027 DENSITY ALT 900FT=
METAR CYPQ 120100Z AUTO 03002KT 9SM -RA BKN037 BKN076 BKN110 OVC140 13/13 A2959 RMK SLP023 DENSITY ALT 1000FT=
SPECI CYPQ 120044Z AUTO VRB02KT 6SM -RA BR SCT037 SCT060 BKN110 OVC140 13/13 A2959 RMK SLP023 DENSITY ALT 1000FT=
SPECI CYPQ 120028Z AUTO 04003KT 360V070 5SM RA BR FEW012 BKN060 BKN100 OVC140 13/13 A2958 RMK SLP021 DENSITY ALT 900FT=
SPECI CYPQ 120019Z AUTO 01004KT 9SM -RA SCT012 SCT050 BKN060 OVC100 13/13 A2958 RMK SLP020 DENSITY ALT 1000FT=
METAR CYPQ 120000Z AUTO 36004KT 240V010 9SM -RA BKN014 OVC071 13/13 A2958 RMK PCPN 0.8MM PAST HR SLP020 DENSITY ALT 900FT=

*** REMARK        : Forecast period has ended; this was the last TAF issued
*** REMARQUE : La période de prévision est échue; ceci était le dernier TAF qui a été émis
TAF AMD CYPQ 120106Z 1201/1202 VRB03KT P6SM -RA OVC030 TEMPO
1201/1202 3SM -RA BR OVC012
RMK FCST BASED ON AUTO OBS. NXT FCST WILL BE ISSUED AT 120945Z=
Your time UTC time
Weather data provided by Environment Canada and NAV CANADA